createdAt,value
2023-04-04T00:00:28.645Z,99.90
2023-04-04T00:02:55.845Z,99.90
2023-04-04T00:05:23.001Z,99.90
2023-04-04T00:07:50.073Z,99.90
2023-04-04T00:10:17.173Z,99.90
2023-04-04T00:12:44.376Z,99.90
2023-04-04T00:15:12.295Z,99.90
2023-04-04T00:17:39.463Z,99.90
2023-04-04T00:20:07.626Z,99.90
2023-04-04T00:22:34.868Z,99.90
2023-04-04T00:25:01.804Z,99.90
2023-04-04T00:27:28.750Z,99.90
2023-04-04T00:29:55.994Z,99.90
2023-04-04T00:32:23.105Z,99.90
2023-04-04T00:34:57.454Z,99.90
2023-04-04T00:37:24.692Z,99.90
2023-04-04T00:39:51.731Z,99.90
2023-04-04T00:42:18.743Z,99.90
2023-04-04T00:44:45.958Z,99.90
2023-04-04T00:47:12.990Z,99.90
2023-04-04T00:49:40.067Z,99.90
2023-04-04T00:52:07.444Z,99.90
2023-04-04T00:54:35.900Z,99.90
2023-04-04T00:57:05.429Z,99.90
2023-04-04T00:59:33.180Z,99.90
2023-04-04T01:02:00.813Z,99.90
2023-04-04T01:04:31.669Z,99.90
2023-04-04T01:06:59.070Z,99.90
2023-04-04T01:09:26.652Z,99.90
2023-04-04T01:11:54.953Z,99.90
2023-04-04T01:14:22.853Z,99.90
2023-04-04T01:16:53.820Z,99.90
2023-04-04T01:19:37.230Z,99.90
2023-04-04T01:22:05.567Z,99.90
2023-04-04T01:24:36.631Z,99.90
2023-04-04T01:27:03.658Z,99.90
2023-04-04T01:29:31.102Z,99.90
2023-04-04T01:32:05.054Z,99.90
2023-04-04T01:35:11.516Z,99.90
2023-04-04T01:37:56.354Z,99.90
2023-04-04T01:40:28.401Z,99.90
2023-04-04T01:42:57.432Z,99.90
2023-04-04T01:45:24.590Z,99.90
2023-04-04T01:47:52.118Z,99.90
2023-04-04T01:50:19.384Z,99.90
2023-04-04T01:52:47.105Z,99.90
2023-04-04T01:55:14.159Z,99.90
2023-04-04T01:57:41.499Z,99.90
2023-04-04T02:00:08.964Z,99.90
2023-04-04T02:02:36.137Z,99.90
2023-04-04T02:05:04.276Z,99.90
2023-04-04T02:07:31.797Z,99.90
2023-04-04T02:09:59.306Z,99.90
2023-04-04T02:12:26.555Z,99.90
2023-04-04T02:14:53.759Z,99.90
2023-04-04T02:17:20.841Z,99.90
2023-04-04T02:19:47.804Z,99.90
2023-04-04T02:22:14.717Z,99.90
2023-04-04T02:24:41.895Z,99.90
2023-04-04T02:27:08.868Z,99.90
2023-04-04T02:29:35.787Z,99.90
2023-04-04T02:32:03.231Z,99.90
2023-04-04T02:34:30.187Z,99.90
2023-04-04T02:36:57.562Z,99.90
2023-04-04T02:39:24.852Z,99.90
2023-04-04T02:41:51.791Z,99.90
2023-04-04T02:44:18.770Z,99.90
2023-04-04T02:46:45.771Z,99.90
2023-04-04T02:49:12.720Z,99.90
2023-04-04T02:51:39.720Z,99.90
2023-04-04T02:54:07.101Z,99.90
2023-04-04T02:56:34.235Z,99.90
2023-04-04T02:59:01.185Z,99.90
2023-04-04T03:01:28.251Z,99.90
2023-04-04T03:03:55.466Z,99.90
2023-04-04T03:06:22.764Z,99.90
2023-04-04T03:08:49.881Z,99.90
2023-04-04T03:11:23.262Z,99.90
2023-04-04T03:13:51.832Z,99.90
2023-04-04T03:16:20.248Z,99.90
2023-04-04T03:18:47.365Z,99.90
2023-04-04T03:21:14.416Z,99.90
2023-04-04T03:23:42.925Z,99.90
2023-04-04T03:26:09.840Z,99.90
2023-04-04T03:28:37.067Z,99.90
2023-04-04T03:31:07.859Z,99.90
2023-04-04T03:33:38.330Z,99.90
2023-04-04T03:36:15.102Z,99.90
2023-04-04T03:38:42.084Z,99.90
2023-04-04T03:41:09.884Z,99.90
2023-04-04T03:43:37.148Z,99.90
2023-04-04T03:46:05.365Z,99.90
2023-04-04T03:48:33.700Z,99.90
2023-04-04T03:51:00.819Z,99.90
2023-04-04T03:53:28.456Z,99.90
2023-04-04T03:55:58.491Z,99.90
2023-04-04T03:58:28.900Z,99.90
2023-04-04T04:00:55.989Z,99.90
2023-04-04T04:03:23.037Z,99.90
2023-04-04T04:05:50.051Z,99.90
2023-04-04T04:08:17.229Z,99.90
2023-04-04T04:10:44.120Z,99.90
2023-04-04T04:13:11.154Z,99.90
2023-04-04T04:15:38.185Z,99.90
2023-04-04T04:18:05.771Z,99.90
2023-04-04T04:20:32.742Z,99.90
2023-04-04T04:22:59.658Z,99.90
2023-04-04T04:25:26.688Z,99.90
2023-04-04T04:27:57.398Z,99.90
2023-04-04T04:30:24.655Z,99.90
2023-04-04T04:32:51.668Z,99.90
2023-04-04T04:35:18.592Z,99.90
2023-04-04T04:37:45.594Z,99.90
2023-04-04T04:40:14.333Z,99.90
2023-04-04T04:42:47.341Z,99.90
2023-04-04T04:45:14.476Z,99.90
2023-04-04T04:47:42.136Z,99.90
2023-04-04T04:50:09.692Z,99.90
2023-04-04T04:52:38.378Z,99.90
2023-04-04T04:55:05.927Z,99.90
2023-04-04T04:57:34.444Z,99.90
2023-04-04T05:00:02.415Z,99.90
2023-04-04T05:02:29.757Z,99.90
2023-04-04T05:04:57.005Z,99.90
2023-04-04T05:07:24.122Z,99.90
2023-04-04T05:09:51.571Z,99.90
2023-04-04T05:12:19.353Z,99.90
2023-04-04T05:14:46.359Z,99.90
2023-04-04T05:17:13.305Z,99.90
2023-04-04T05:19:40.226Z,99.90
2023-04-04T05:22:08.272Z,99.90
2023-04-04T05:24:35.236Z,99.90
2023-04-04T05:27:02.345Z,99.90
2023-04-04T05:29:29.332Z,99.90
2023-04-04T05:31:56.581Z,99.90
2023-04-04T05:34:23.539Z,99.90
2023-04-04T05:36:50.760Z,99.90
2023-04-04T05:39:17.772Z,99.90
2023-04-04T05:41:44.715Z,99.90
2023-04-04T05:44:11.732Z,99.90
2023-04-04T05:46:38.945Z,99.90
2023-04-04T05:49:05.957Z,99.90
2023-04-04T05:51:32.950Z,99.90
2023-04-04T05:53:59.899Z,99.90
2023-04-04T05:56:26.956Z,99.90
2023-04-04T05:58:53.955Z,99.90
2023-04-04T06:01:21.238Z,99.90
2023-04-04T06:03:48.237Z,99.90
2023-04-04T06:06:16.028Z,99.90
2023-04-04T06:08:52.922Z,99.90
2023-04-04T06:11:23.087Z,99.90
2023-04-04T06:13:51.399Z,99.90
2023-04-04T06:16:18.753Z,99.90
2023-04-04T06:18:45.743Z,99.90
2023-04-04T06:21:13.588Z,99.90
2023-04-04T06:23:41.172Z,99.90
2023-04-04T06:26:11.527Z,99.90
2023-04-04T06:28:39.225Z,99.90
2023-04-04T06:31:07.076Z,99.90
2023-04-04T06:33:34.062Z,99.90
2023-04-04T06:36:01.243Z,99.90
2023-04-04T06:38:29.533Z,99.90
2023-04-04T06:40:56.430Z,99.90
2023-04-04T06:43:24.174Z,99.90
2023-04-04T06:45:51.254Z,99.90
2023-04-04T06:48:18.282Z,99.90
2023-04-04T06:50:45.228Z,99.90
2023-04-04T06:53:12.557Z,99.90
2023-04-04T06:55:39.608Z,99.90
2023-04-04T06:58:06.784Z,99.90
2023-04-04T07:00:33.717Z,99.90
2023-04-04T07:03:01.295Z,99.90
2023-04-04T07:05:28.887Z,99.90
2023-04-04T07:07:57.043Z,99.90
2023-04-04T07:10:25.007Z,99.90
2023-04-04T07:12:52.240Z,99.90
2023-04-04T07:15:19.216Z,99.90
2023-04-04T07:17:46.201Z,99.90
2023-04-04T07:20:13.602Z,99.90
2023-04-04T07:22:41.464Z,99.90
2023-04-04T07:25:09.701Z,99.90
2023-04-04T07:27:37.117Z,99.90
2023-04-04T07:30:05.094Z,99.90
2023-04-04T07:32:32.153Z,99.90
2023-04-04T07:34:59.066Z,99.90
2023-04-04T07:37:28.626Z,99.90
2023-04-04T07:39:55.507Z,99.90
2023-04-04T07:42:25.525Z,99.90
2023-04-04T07:44:52.875Z,99.90
2023-04-04T07:47:20.711Z,99.90
2023-04-04T07:49:47.660Z,99.90
2023-04-04T07:52:14.616Z,99.90
2023-04-04T07:54:42.037Z,99.90
2023-04-04T07:57:11.727Z,99.90
2023-04-04T07:59:38.637Z,99.90
2023-04-04T08:02:05.687Z,99.90
2023-04-04T08:04:32.625Z,99.90
2023-04-04T08:06:59.613Z,99.90
2023-04-04T08:09:31.409Z,99.90
2023-04-04T08:11:58.362Z,99.90
2023-04-04T08:14:25.759Z,99.90
2023-04-04T08:16:52.845Z,99.90
2023-04-04T08:19:20.210Z,99.90
2023-04-04T08:21:47.096Z,99.10
2023-04-04T08:24:14.167Z,99.90
2023-04-04T08:26:42.327Z,99.90
2023-04-04T08:29:10.548Z,98.40
2023-04-04T08:31:37.527Z,98.60
2023-04-04T08:34:07.806Z,96.60
2023-04-04T08:36:35.804Z,96.80
2023-04-04T08:39:03.880Z,96.30
2023-04-04T08:41:34.964Z,94.10
2023-04-04T08:44:04.621Z,93.20
2023-04-04T08:46:31.895Z,94.40
2023-04-04T08:49:00.567Z,95.20
2023-04-04T08:51:31.850Z,96.10
2023-04-04T08:53:59.474Z,94.60
2023-04-04T08:56:26.756Z,93.00
2023-04-04T08:58:53.795Z,91.30
2023-04-04T09:01:22.462Z,92.00
2023-04-04T09:03:51.032Z,93.30
2023-04-04T09:06:19.412Z,94.70
2023-04-04T09:08:47.264Z,94.20
2023-04-04T09:11:14.757Z,90.10
2023-04-04T09:13:44.880Z,92.30
2023-04-04T09:16:12.197Z,92.60
2023-04-04T09:18:39.101Z,92.20
2023-04-04T09:21:13.381Z,91.60
2023-04-04T09:23:40.680Z,94.10
2023-04-04T09:26:07.590Z,93.80
2023-04-04T09:28:35.572Z,95.10
2023-04-04T09:31:06.036Z,95.30
2023-04-04T09:33:34.339Z,95.60
2023-04-04T09:36:10.347Z,97.30
2023-04-04T09:38:45.480Z,95.20
2023-04-04T09:41:16.129Z,98.80
2023-04-04T09:43:45.836Z,97.20
2023-04-04T09:46:13.037Z,96.70
2023-04-04T09:48:40.316Z,96.10
2023-04-04T09:51:12.463Z,95.10
2023-04-04T09:53:42.165Z,94.80
2023-04-04T09:56:09.588Z,95.80
2023-04-04T09:58:42.319Z,95.90
2023-04-04T10:01:18.184Z,95.40
2023-04-04T10:03:53.951Z,94.90
2023-04-04T10:06:21.632Z,95.40
2023-04-04T10:08:50.034Z,93.80
2023-04-04T10:11:30.887Z,93.70
2023-04-04T10:13:59.208Z,94.50
2023-04-04T10:16:26.748Z,92.10
2023-04-04T10:18:54.035Z,96.20
2023-04-04T10:21:22.818Z,98.20
2023-04-04T10:23:50.672Z,96.40
2023-04-04T10:26:17.664Z,96.30
2023-04-04T10:28:45.570Z,96.10
2023-04-04T10:31:24.984Z,95.70
2023-04-04T10:34:07.342Z,93.70
2023-04-04T10:36:45.228Z,94.10
2023-04-04T10:39:26.653Z,94.10
2023-04-04T10:41:55.041Z,94.10
2023-04-04T10:44:29.927Z,92.50
2023-04-04T10:47:00.103Z,93.40
2023-04-04T10:49:29.834Z,92.30
2023-04-04T10:51:57.503Z,91.90
2023-04-04T10:54:27.678Z,90.60
2023-04-04T10:56:56.808Z,92.30
2023-04-04T10:59:26.467Z,91.70
2023-04-04T11:01:58.722Z,91.60
2023-04-04T11:04:38.425Z,90.20
2023-04-04T11:07:09.069Z,90.80
2023-04-04T11:09:56.052Z,90.10
2023-04-04T11:12:31.546Z,90.00
2023-04-04T11:15:10.363Z,91.10
2023-04-04T11:17:50.238Z,91.40
2023-04-04T11:20:23.771Z,90.60
2023-04-04T11:23:02.345Z,91.50
2023-04-04T11:25:33.384Z,93.20
2023-04-04T11:28:05.951Z,91.90
2023-04-04T11:30:37.969Z,93.50
2023-04-04T11:33:07.943Z,93.50
2023-04-04T11:35:39.390Z,90.80
2023-04-04T11:38:14.711Z,92.50
2023-04-04T11:40:42.991Z,93.30
2023-04-04T11:43:12.109Z,93.00
2023-04-04T11:45:44.831Z,93.90
2023-04-04T11:48:12.998Z,94.20
2023-04-04T11:50:41.642Z,92.50
2023-04-04T11:53:10.508Z,91.90
2023-04-04T11:55:43.018Z,92.30
2023-04-04T11:58:13.288Z,86.70
2023-04-04T12:00:41.666Z,80.30
2023-04-04T12:03:12.895Z,88.20
2023-04-04T12:05:42.431Z,90.10
2023-04-04T12:08:11.684Z,89.00
2023-04-04T12:10:40.830Z,87.10
2023-04-04T12:13:09.274Z,80.20
2023-04-04T12:15:37.836Z,87.50
2023-04-04T12:18:08.173Z,89.40
2023-04-04T12:20:38.794Z,85.10
2023-04-04T12:23:05.770Z,86.20
2023-04-04T12:25:34.308Z,86.70
2023-04-04T12:28:04.907Z,82.00
2023-04-04T12:30:32.349Z,81.00
2023-04-04T12:32:59.854Z,84.40
2023-04-04T12:35:26.836Z,86.40
2023-04-04T12:38:10.945Z,86.90
2023-04-04T12:40:39.367Z,89.30
2023-04-04T12:43:09.906Z,87.80
2023-04-04T12:45:40.969Z,87.40
2023-04-04T12:48:14.553Z,85.30
2023-04-04T12:50:52.223Z,86.50
2023-04-04T12:53:29.722Z,88.20
2023-04-04T12:56:02.448Z,91.30
2023-04-04T12:58:29.776Z,93.50
2023-04-04T13:01:00.421Z,92.40
2023-04-04T13:03:28.858Z,92.60
2023-04-04T13:05:55.927Z,93.00
2023-04-04T13:08:23.072Z,93.90
2023-04-04T13:11:07.103Z,91.70
2023-04-04T13:13:38.790Z,92.20
2023-04-04T13:16:07.922Z,93.50
2023-04-04T13:18:39.270Z,93.10
2023-04-04T13:21:07.997Z,94.10
2023-04-04T13:23:39.766Z,94.70
2023-04-04T13:26:09.009Z,94.50
2023-04-04T13:28:36.624Z,94.80
2023-04-04T13:31:05.757Z,94.10
2023-04-04T13:33:33.383Z,92.20
2023-04-04T13:36:01.317Z,90.90
2023-04-04T13:38:29.669Z,91.10
2023-04-04T13:41:00.674Z,91.20
2023-04-04T13:43:28.224Z,91.00
2023-04-04T13:45:56.004Z,92.20
2023-04-04T13:48:23.388Z,93.40
2023-04-04T13:50:55.505Z,91.60
2023-04-04T13:53:22.698Z,90.90
2023-04-04T13:56:13.054Z,90.50
2023-04-04T13:58:36.654Z,90.50
2023-04-04T14:01:07.182Z,90.70
2023-04-04T14:03:34.338Z,92.20
2023-04-04T14:06:09.312Z,93.70
2023-04-04T14:08:37.604Z,92.20
2023-04-04T14:11:04.889Z,93.20
2023-04-04T14:13:33.219Z,91.80
2023-04-04T14:16:00.237Z,88.80
2023-04-04T14:18:27.372Z,90.20
2023-04-04T14:20:54.436Z,92.40
2023-04-04T14:23:22.206Z,93.80
2023-04-04T14:25:50.964Z,95.10
2023-04-04T14:28:18.026Z,94.90
2023-04-04T14:30:44.941Z,94.10
2023-04-04T14:33:11.933Z,95.80
2023-04-04T14:35:39.316Z,96.40
2023-04-04T14:38:06.584Z,95.80
2023-04-04T14:40:33.517Z,94.70
2023-04-04T14:43:00.460Z,95.40
2023-04-04T14:45:28.738Z,93.40
2023-04-04T14:47:55.732Z,91.80
2023-04-04T14:50:22.760Z,90.90
2023-04-04T14:56:30.638Z,90.70
2023-04-04T14:58:57.636Z,90.00
2023-04-04T15:01:24.737Z,90.20
2023-04-04T15:03:51.918Z,88.10
2023-04-04T15:10:07.474Z,90.20
2023-04-04T15:12:34.609Z,87.50
2023-04-04T15:15:01.496Z,86.20
2023-04-04T15:17:28.436Z,86.80
2023-04-04T15:19:55.827Z,86.10
2023-04-04T15:22:22.651Z,82.00
2023-04-04T15:24:49.590Z,81.40
2023-04-04T15:27:16.520Z,78.40
2023-04-04T15:29:44.874Z,80.00
2023-04-04T15:32:11.884Z,80.20
2023-04-04T15:34:39.310Z,79.30
2023-04-04T15:37:06.291Z,77.90
2023-04-04T15:39:39.726Z,78.30
2023-04-04T15:42:13.177Z,77.50
2023-04-04T15:44:40.172Z,75.80
2023-04-04T15:47:07.082Z,76.50
2023-04-04T15:49:34.057Z,74.20
2023-04-04T15:52:01.035Z,75.20
2023-04-04T15:54:29.096Z,76.80
2023-04-04T15:56:57.096Z,77.80
2023-04-04T15:59:24.234Z,78.30
2023-04-04T16:01:51.272Z,80.30
2023-04-04T16:04:18.267Z,81.40
2023-04-04T16:06:45.186Z,80.70
2023-04-04T16:09:12.257Z,76.00
2023-04-04T16:11:39.280Z,72.10
2023-04-04T16:14:09.304Z,70.30
2023-04-04T16:16:36.773Z,66.90
2023-04-04T16:19:03.733Z,66.90
2023-04-04T16:21:31.380Z,65.90
2023-04-04T16:23:58.783Z,64.00
2023-04-04T16:26:25.828Z,65.70
2023-04-04T16:28:52.937Z,67.10
2023-04-04T16:31:20.098Z,69.30
2023-04-04T16:33:47.823Z,72.20
2023-04-04T16:36:14.926Z,76.40
2023-04-04T16:38:41.989Z,78.00
2023-04-04T16:41:08.996Z,80.00
2023-04-04T16:43:35.962Z,80.90
2023-04-04T16:46:02.962Z,83.30
2023-04-04T16:48:29.909Z,82.90
2023-04-04T16:50:57.047Z,80.70
2023-04-04T16:53:24.074Z,80.90
2023-04-04T16:55:51.084Z,81.70
2023-04-04T16:58:18.234Z,80.90
2023-04-04T17:00:45.363Z,80.00
2023-04-04T17:03:12.317Z,81.00
2023-04-04T17:05:39.262Z,82.80
2023-04-04T17:08:06.459Z,82.40
2023-04-04T17:10:34.295Z,83.00
2023-04-04T17:13:02.162Z,83.40
2023-04-04T17:15:29.844Z,82.70
2023-04-04T17:17:56.774Z,83.50
2023-04-04T17:20:24.101Z,84.60
2023-04-04T17:22:53.312Z,85.00
2023-04-04T17:25:26.870Z,86.30
2023-04-04T17:27:54.067Z,86.00
2023-04-04T17:30:21.497Z,86.50
2023-04-04T17:32:49.814Z,87.80
2023-04-04T17:35:16.865Z,88.70
2023-04-04T17:37:43.983Z,89.80
2023-04-04T17:40:11.853Z,90.40
2023-04-04T17:42:40.068Z,90.90
2023-04-04T17:45:08.514Z,91.80
2023-04-04T17:47:35.694Z,92.40
2023-04-04T17:50:02.962Z,93.00
2023-04-04T17:52:30.332Z,94.20
2023-04-04T17:54:57.944Z,94.60
2023-04-04T17:57:25.260Z,95.10
2023-04-04T17:59:53.200Z,96.10
2023-04-04T18:02:20.770Z,95.60
2023-04-04T18:04:48.070Z,96.10
2023-04-04T18:07:15.313Z,97.00
2023-04-04T18:09:43.783Z,97.20
2023-04-04T18:12:11.107Z,97.90
2023-04-04T18:14:38.516Z,97.90
2023-04-04T18:17:07.400Z,98.20
2023-04-04T18:19:35.483Z,98.70
2023-04-04T18:22:03.846Z,98.70
2023-04-04T18:24:31.517Z,98.80
2023-04-04T18:27:00.396Z,99.40
2023-04-04T18:29:30.902Z,99.50
2023-04-04T18:32:01.740Z,99.90
2023-04-04T18:34:29.331Z,99.60
2023-04-04T18:36:56.775Z,99.70
2023-04-04T18:39:24.433Z,99.90
2023-04-04T18:41:51.791Z,99.90
2023-04-04T18:44:19.316Z,99.90
2023-04-04T18:46:46.484Z,99.90
2023-04-04T18:49:13.722Z,99.90
2023-04-04T18:51:40.972Z,99.90
2023-04-04T18:54:08.477Z,99.90
2023-04-04T18:56:37.824Z,99.90
2023-04-04T18:59:06.363Z,99.90
2023-04-04T19:01:33.846Z,99.90
2023-04-04T19:04:03.469Z,99.90
2023-04-04T19:06:32.465Z,99.90
2023-04-04T19:09:04.371Z,99.90
2023-04-04T19:11:33.864Z,99.90
2023-04-04T19:14:01.277Z,99.90
2023-04-04T19:16:28.712Z,99.90
2023-04-04T19:18:56.643Z,99.90
2023-04-04T19:21:24.048Z,99.90
2023-04-04T19:23:51.167Z,99.90
2023-04-04T19:26:18.507Z,99.90
2023-04-04T19:28:46.580Z,99.90
2023-04-04T19:31:24.720Z,99.90
2023-04-04T19:33:57.320Z,99.90
2023-04-04T19:36:24.789Z,99.90
2023-04-04T19:38:54.656Z,99.90
2023-04-04T19:41:39.170Z,99.90
2023-04-04T19:44:11.417Z,99.90
2023-04-04T19:46:38.382Z,99.90
2023-04-04T19:49:12.361Z,99.90
2023-04-04T19:51:51.533Z,99.90
2023-04-04T19:54:26.719Z,99.90
2023-04-04T19:57:12.816Z,99.90
2023-04-04T19:59:42.862Z,99.90
2023-04-04T20:02:36.570Z,99.90
2023-04-04T20:05:29.173Z,99.90
2023-04-04T20:11:43.636Z,99.90
2023-04-04T20:14:10.812Z,99.90
2023-04-04T20:16:37.936Z,99.90
2023-04-04T20:19:06.893Z,99.90
2023-04-04T20:21:35.876Z,99.90
2023-04-04T20:24:06.164Z,99.90
2023-04-04T20:26:36.311Z,99.90
2023-04-04T20:29:06.824Z,99.90
2023-04-04T20:31:48.713Z,99.90
2023-04-04T20:34:38.733Z,99.90
2023-04-04T20:37:11.767Z,99.90
2023-04-04T20:39:44.985Z,99.90
2023-04-04T20:42:18.130Z,99.90
2023-04-04T20:44:45.868Z,99.90
2023-04-04T20:47:40.872Z,99.90
2023-04-04T20:50:17.142Z,99.90
2023-04-04T20:52:56.626Z,99.90
2023-04-04T20:55:25.992Z,99.90
2023-04-04T20:57:55.047Z,99.90
2023-04-04T21:00:36.787Z,99.90
2023-04-04T21:03:09.798Z,99.90
2023-04-04T21:05:39.430Z,99.90
2023-04-04T21:08:38.211Z,99.90
2023-04-04T21:11:06.941Z,99.90
2023-04-04T21:13:36.931Z,99.90
2023-04-04T21:16:17.051Z,99.90
2023-04-04T21:18:44.657Z,99.90
2023-04-04T21:21:21.308Z,99.90
2023-04-04T21:23:55.503Z,99.90
2023-04-04T21:26:34.436Z,99.90
2023-04-04T21:29:04.330Z,99.90
2023-04-04T21:31:36.706Z,99.90
2023-04-04T21:34:18.535Z,99.90
2023-04-04T21:36:46.446Z,99.90
2023-04-04T21:39:14.612Z,99.90
2023-04-04T21:41:43.917Z,99.90
2023-04-04T21:44:11.394Z,99.90
2023-04-04T21:46:41.353Z,99.90
2023-04-04T21:49:09.373Z,99.90
2023-04-04T21:51:36.680Z,99.90
2023-04-04T21:54:04.640Z,99.90
2023-04-04T21:56:31.841Z,99.90
2023-04-04T21:59:04.260Z,99.90
2023-04-04T22:01:31.705Z,99.90
2023-04-04T22:03:59.276Z,99.90
2023-04-04T22:06:27.447Z,99.90
2023-04-04T22:08:56.264Z,99.90
2023-04-04T22:11:26.100Z,99.90
2023-04-04T22:14:03.536Z,99.90
2023-04-04T22:16:31.562Z,99.90
2023-04-04T22:19:01.291Z,99.90
2023-04-04T22:21:28.568Z,99.90
2023-04-04T22:24:02.783Z,99.90
2023-04-04T22:26:32.589Z,99.90
2023-04-04T22:29:01.383Z,99.90
2023-04-04T22:31:28.921Z,99.90
2023-04-04T22:33:56.329Z,99.90
2023-04-04T22:36:24.562Z,99.90
2023-04-04T22:38:57.390Z,99.90
2023-04-04T22:41:29.213Z,99.90
2023-04-04T22:43:57.717Z,99.90
2023-04-04T22:46:29.384Z,99.90
2023-04-04T22:49:05.409Z,99.90
2023-04-04T22:51:34.945Z,99.90
2023-04-04T22:54:02.808Z,99.90
2023-04-04T22:56:29.678Z,99.90
2023-04-04T22:58:56.954Z,99.90
2023-04-04T23:01:23.973Z,99.90
2023-04-04T23:03:51.480Z,99.90
2023-04-04T23:06:19.839Z,99.90
2023-04-04T23:08:47.072Z,99.90
2023-04-04T23:11:14.168Z,99.90
2023-04-04T23:13:43.422Z,99.90
2023-04-04T23:16:10.470Z,99.90
2023-04-04T23:18:37.450Z,99.90
2023-04-04T23:21:04.469Z,99.90
2023-04-04T23:23:31.401Z,99.90
2023-04-04T23:25:58.500Z,99.90
2023-04-04T23:28:29.241Z,99.90
2023-04-04T23:30:56.252Z,99.90
2023-04-04T23:33:23.250Z,99.90
2023-04-04T23:35:50.174Z,99.90
2023-04-04T23:38:17.134Z,99.90
2023-04-04T23:40:44.232Z,99.90
2023-04-04T23:43:11.106Z,99.90
2023-04-04T23:45:40.390Z,99.90
2023-04-04T23:48:07.534Z,99.90
2023-04-04T23:50:34.658Z,99.90
2023-04-04T23:53:01.659Z,99.90
2023-04-04T23:55:28.610Z,99.90
2023-04-04T23:58:03.251Z,99.90
